createdAt,value
2018-04-29T00:00:02.816Z,8.00
2018-04-29T00:01:02.795Z,8.00
2018-04-29T00:02:02.780Z,8.00
2018-04-29T00:03:02.764Z,8.00
2018-04-29T00:04:02.756Z,8.00
2018-04-29T00:05:02.736Z,8.00
2018-04-29T00:06:02.718Z,8.00
2018-04-29T00:07:02.709Z,8.00
2018-04-29T00:08:02.737Z,8.00
2018-04-29T00:09:02.673Z,8.00
2018-04-29T00:10:02.657Z,8.00
2018-04-29T00:11:02.640Z,8.00
2018-04-29T00:12:02.629Z,8.00
2018-04-29T00:13:02.611Z,8.00
2018-04-29T00:14:02.592Z,8.00
2018-04-29T00:15:02.578Z,8.00
2018-04-29T00:16:02.563Z,8.00
2018-04-29T00:17:02.555Z,8.00
2018-04-29T00:18:02.535Z,8.00
2018-04-29T00:19:02.517Z,8.00
2018-04-29T00:20:02.502Z,8.00
2018-04-29T00:21:02.485Z,8.00
2018-04-29T00:22:02.472Z,8.00
2018-04-29T00:23:02.457Z,8.00
2018-04-29T00:24:02.440Z,8.00
2018-04-29T00:25:02.430Z,8.00
2018-04-29T00:26:02.428Z,8.00
2018-04-29T00:27:02.394Z,8.00
2018-04-29T00:28:02.429Z,8.00
2018-04-29T00:29:02.361Z,8.00
2018-04-29T00:30:02.345Z,8.00
2018-04-29T00:31:02.329Z,8.00
2018-04-29T00:32:02.319Z,8.00
2018-04-29T00:33:02.299Z,8.00
2018-04-29T00:34:02.284Z,8.00
2018-04-29T00:35:02.268Z,8.00
2018-04-29T00:36:02.253Z,8.00
2018-04-29T00:37:02.245Z,8.00
2018-04-29T00:38:02.234Z,8.00
2018-04-29T00:39:02.206Z,8.00
2018-04-29T00:40:02.193Z,8.00
2018-04-29T00:41:02.176Z,8.00
2018-04-29T00:42:02.160Z,8.00
2018-04-29T00:43:02.144Z,8.00
2018-04-29T00:44:02.134Z,8.00
2018-04-29T00:45:02.116Z,8.00
2018-04-29T00:46:02.109Z,8.00
2018-04-29T00:47:02.084Z,8.00
2018-04-29T00:48:02.067Z,8.00
2018-04-29T00:49:02.053Z,8.00
2018-04-29T00:50:02.035Z,8.00
2018-04-29T00:51:02.077Z,8.00
2018-04-29T00:52:02.009Z,8.00
2018-04-29T00:53:01.999Z,8.00
2018-04-29T00:54:01.976Z,8.00
2018-04-29T00:55:01.960Z,8.00
2018-04-29T00:56:01.945Z,8.00
2018-04-29T00:57:01.932Z,8.00
2018-04-29T00:58:01.921Z,8.00
2018-04-29T00:59:01.919Z,8.00
2018-04-29T01:00:01.884Z,8.00
2018-04-29T01:01:01.865Z,8.00
2018-04-29T01:02:01.850Z,8.00
2018-04-29T01:03:01.835Z,8.00
2018-04-29T01:04:01.820Z,8.00
2018-04-29T01:05:01.809Z,8.00
2018-04-29T01:06:01.892Z,8.00
2018-04-29T01:07:01.773Z,8.00
2018-04-29T01:08:01.758Z,8.00
2018-04-29T01:09:01.749Z,8.00
2018-04-29T01:10:01.728Z,8.00
2018-04-29T01:11:01.710Z,8.00
2018-04-29T01:12:01.697Z,8.00
2018-04-29T01:13:01.679Z,8.00
2018-04-29T01:14:01.665Z,8.00
2018-04-29T01:15:01.689Z,8.00
2018-04-29T01:16:01.631Z,8.00
2018-04-29T01:17:01.624Z,8.00
2018-04-29T01:18:01.599Z,8.00
2018-04-29T01:19:01.583Z,8.00
2018-04-29T01:20:01.567Z,8.00
2018-04-29T01:21:01.563Z,8.00
2018-04-29T01:22:01.535Z,8.00
2018-04-29T01:23:01.519Z,8.00
2018-04-29T01:24:01.505Z,8.00
2018-04-29T01:25:01.489Z,8.00
2018-04-29T01:26:01.473Z,8.00
2018-04-29T01:27:01.456Z,8.00
2018-04-29T01:28:01.441Z,8.00
2018-04-29T01:29:01.425Z,8.00
2018-04-29T01:30:01.407Z,8.00
2018-04-29T01:31:01.396Z,8.00
2018-04-29T01:32:01.377Z,8.00
2018-04-29T01:33:01.372Z,8.00
2018-04-29T01:34:01.346Z,8.00
2018-04-29T01:35:01.327Z,8.00
2018-04-29T01:36:01.319Z,8.00
2018-04-29T01:37:01.312Z,8.00
2018-04-29T01:38:01.279Z,8.00
2018-04-29T01:39:01.271Z,8.00
2018-04-29T01:40:01.249Z,8.00
2018-04-29T01:41:01.232Z,8.00
2018-04-29T01:42:01.214Z,8.00
2018-04-29T01:43:01.200Z,8.00
2018-04-29T01:44:01.184Z,8.00
2018-04-29T01:45:01.168Z,8.00
2018-04-29T01:46:01.150Z,8.00
2018-04-29T01:47:01.135Z,8.00
2018-04-29T01:48:01.119Z,8.00
2018-04-29T01:49:01.103Z,8.00
2018-04-29T01:50:01.087Z,8.00
2018-04-29T01:51:01.069Z,8.00
2018-04-29T01:52:01.056Z,8.00
2018-04-29T01:53:01.045Z,8.00
2018-04-29T01:54:01.023Z,8.00
2018-04-29T01:55:01.005Z,8.00
2018-04-29T01:56:00.990Z,8.00
2018-04-29T01:57:00.972Z,8.00
2018-04-29T01:58:00.959Z,8.00
2018-04-29T01:59:00.941Z,8.00
2018-04-29T02:00:00.930Z,8.00
2018-04-29T02:01:00.909Z,8.00
2018-04-29T02:02:00.899Z,8.00
2018-04-29T02:03:00.881Z,8.00
2018-04-29T02:04:00.859Z,8.00
2018-04-29T02:05:00.843Z,8.00
2018-04-29T02:06:00.828Z,8.00
2018-04-29T02:07:00.811Z,8.00
2018-04-29T02:08:00.808Z,8.00
2018-04-29T02:09:00.780Z,8.00
2018-04-29T02:10:00.760Z,8.00
2018-04-29T02:11:00.746Z,8.00
2018-04-29T02:12:00.732Z,8.00
2018-04-29T02:13:00.715Z,8.00
2018-04-29T02:14:00.706Z,8.00
2018-04-29T02:15:00.681Z,8.00
2018-04-29T02:16:00.667Z,8.00
2018-04-29T02:17:00.649Z,8.00
2018-04-29T02:18:00.638Z,8.00
2018-04-29T02:19:00.617Z,8.00
2018-04-29T02:20:00.610Z,8.00
2018-04-29T02:21:00.588Z,8.00
2018-04-29T02:22:00.577Z,8.00
2018-04-29T02:23:00.558Z,8.00
2018-04-29T02:24:00.534Z,8.00
2018-04-29T02:25:00.518Z,8.00
2018-04-29T02:26:00.500Z,8.00
2018-04-29T02:27:00.483Z,8.00
2018-04-29T02:28:00.469Z,8.00
2018-04-29T02:29:00.455Z,8.00
2018-04-29T02:30:00.435Z,8.00
2018-04-29T02:31:00.418Z,8.00
2018-04-29T02:32:00.402Z,8.00
2018-04-29T02:33:00.385Z,8.00
2018-04-29T02:34:00.367Z,8.00
2018-04-29T02:35:00.351Z,8.00
2018-04-29T02:36:00.335Z,8.00
2018-04-29T02:37:00.321Z,8.00
2018-04-29T02:38:00.301Z,8.00
2018-04-29T02:39:00.284Z,8.00
2018-04-29T02:40:00.270Z,8.00
2018-04-29T02:41:00.253Z,8.00
2018-04-29T02:42:00.234Z,8.00
2018-04-29T02:43:00.217Z,8.00
2018-04-29T02:44:00.202Z,8.00
2018-04-29T02:45:00.211Z,8.00
2018-04-29T02:46:00.168Z,8.00
2018-04-29T02:47:00.151Z,8.00
2018-04-29T02:48:00.133Z,8.00
2018-04-29T02:49:00.119Z,8.00
2018-04-29T02:50:00.101Z,8.00
2018-04-29T02:51:00.084Z,8.00
2018-04-29T02:52:00.066Z,8.00
2018-04-29T02:53:00.052Z,8.00
2018-04-29T02:54:00.040Z,8.00
2018-04-29T02:55:00.020Z,8.00
2018-04-29T02:56:00.002Z,8.00
2018-04-29T02:56:59.982Z,8.00
2018-04-29T02:57:59.965Z,8.00
2018-04-29T02:58:59.947Z,8.00
2018-04-29T02:59:59.929Z,8.00
2018-04-29T03:00:59.915Z,8.00
2018-04-29T03:01:59.895Z,8.00
2018-04-29T03:02:59.879Z,8.00
2018-04-29T03:03:59.864Z,8.00
2018-04-29T03:04:59.855Z,8.00
2018-04-29T03:05:59.830Z,8.00
2018-04-29T03:06:59.812Z,8.00
2018-04-29T03:07:59.796Z,8.00
2018-04-29T03:08:59.779Z,8.00
2018-04-29T03:09:59.765Z,8.00
2018-04-29T03:10:59.747Z,8.00
2018-04-29T03:11:59.742Z,8.00
2018-04-29T03:12:59.712Z,12.00
2018-04-29T03:13:59.693Z,12.00
2018-04-29T03:14:59.674Z,12.00
2018-04-29T03:15:59.659Z,12.00
2018-04-29T03:16:59.641Z,12.00
2018-04-29T03:17:59.623Z,12.00
2018-04-29T03:18:59.607Z,8.00
2018-04-29T03:19:59.591Z,8.00
2018-04-29T03:20:59.572Z,8.00
2018-04-29T03:21:59.556Z,8.00
2018-04-29T03:22:59.549Z,8.00
2018-04-29T03:23:59.522Z,8.00
2018-04-29T03:24:59.506Z,8.00
2018-04-29T03:25:59.497Z,8.00
2018-04-29T03:26:59.472Z,8.00
2018-04-29T03:27:59.454Z,12.00
2018-04-29T03:28:59.435Z,12.00
2018-04-29T03:29:59.419Z,12.00
2018-04-29T03:30:59.402Z,8.00
2018-04-29T03:31:59.384Z,12.00
2018-04-29T03:32:59.368Z,12.00
2018-04-29T03:33:59.349Z,12.00
2018-04-29T03:34:59.332Z,12.00
2018-04-29T03:35:59.314Z,16.00
2018-04-29T03:36:59.299Z,16.00
2018-04-29T03:37:59.280Z,20.00
2018-04-29T03:38:59.265Z,20.00
2018-04-29T03:39:59.245Z,20.00
2018-04-29T03:40:59.228Z,20.00
2018-04-29T03:41:59.216Z,24.00
2018-04-29T03:42:59.193Z,24.00
2018-04-29T03:43:59.177Z,28.00
2018-04-29T03:44:59.160Z,32.00
2018-04-29T03:45:59.142Z,24.00
2018-04-29T03:46:59.128Z,32.00
2018-04-29T03:47:59.107Z,36.00
2018-04-29T03:48:59.090Z,40.00
2018-04-29T03:49:59.072Z,44.00
2018-04-29T03:50:59.055Z,52.00
2018-04-29T03:51:59.037Z,60.00
2018-04-29T03:52:59.032Z,64.00
2018-04-29T03:53:59.002Z,72.00
2018-04-29T03:54:58.985Z,80.00
2018-04-29T03:55:59.142Z,92.00
2018-04-29T03:56:58.951Z,104.00
2018-04-29T03:57:58.935Z,116.00
2018-04-29T03:58:58.916Z,128.00
2018-04-29T03:59:58.897Z,140.00
2018-04-29T04:00:58.880Z,152.00
2018-04-29T04:01:58.862Z,172.00
2018-04-29T04:02:58.845Z,192.00
2018-04-29T04:03:58.827Z,212.00
2018-04-29T04:04:58.809Z,232.00
2018-04-29T04:05:58.793Z,256.00
2018-04-29T04:06:58.776Z,284.00
2018-04-29T04:07:58.756Z,304.00
2018-04-29T04:08:58.748Z,332.00
2018-04-29T04:09:58.721Z,360.00
2018-04-29T04:10:58.704Z,392.00
2018-04-29T04:11:58.687Z,424.00
2018-04-29T04:12:58.671Z,460.00
2018-04-29T04:13:58.651Z,504.00
2018-04-29T04:14:58.634Z,552.00
2018-04-29T04:15:58.626Z,608.00
2018-04-29T04:16:58.599Z,664.00
2018-04-29T04:17:58.581Z,724.00
2018-04-29T04:18:58.564Z,788.00
2018-04-29T04:19:58.546Z,856.00
2018-04-29T04:20:58.529Z,916.00
2018-04-29T04:21:58.511Z,980.00
2018-04-29T04:22:58.498Z,1040.00
2018-04-29T04:23:58.527Z,1088.00
2018-04-29T04:24:58.461Z,1136.00
2018-04-29T04:25:58.441Z,1176.00
2018-04-29T04:26:58.424Z,1216.00
2018-04-29T04:27:58.406Z,1256.00
2018-04-29T04:28:58.388Z,1300.00
2018-04-29T04:29:58.372Z,1352.00
2018-04-29T04:30:58.353Z,1404.00
2018-04-29T04:31:58.337Z,1476.00
2018-04-29T04:32:58.321Z,1560.00
2018-04-29T04:33:58.306Z,1672.00
2018-04-29T04:34:58.283Z,1804.00
2018-04-29T04:35:58.271Z,1952.00
2018-04-29T04:36:58.249Z,2096.00
2018-04-29T04:37:58.232Z,2212.00
2018-04-29T04:38:58.213Z,2304.00
2018-04-29T04:39:58.198Z,2388.00
2018-04-29T04:40:58.179Z,2460.00
2018-04-29T04:41:58.161Z,2512.00
2018-04-29T04:42:58.145Z,2568.00
2018-04-29T04:43:58.136Z,2668.00
2018-04-29T04:44:58.110Z,2784.00
2018-04-29T04:45:58.095Z,2828.00
2018-04-29T04:46:58.075Z,2788.00
2018-04-29T04:47:58.059Z,2732.00
2018-04-29T04:48:58.044Z,2672.00
2018-04-29T04:49:58.021Z,2616.00
2018-04-29T04:50:58.005Z,2560.00
2018-04-29T04:51:57.988Z,2508.00
2018-04-29T04:52:57.971Z,2400.00
2018-04-29T04:53:57.953Z,2264.00
2018-04-29T04:54:57.936Z,2204.00
2018-04-29T04:55:57.926Z,2176.00
2018-04-29T04:56:57.903Z,2192.00
2018-04-29T04:57:57.890Z,2228.00
2018-04-29T04:58:57.867Z,2316.00
2018-04-29T04:59:57.864Z,2356.00
2018-04-29T05:00:57.848Z,2380.00
2018-04-29T05:01:57.817Z,2384.00
2018-04-29T05:02:57.798Z,2452.00
2018-04-29T05:03:57.780Z,2396.00
2018-04-29T05:04:57.765Z,2424.00
2018-04-29T05:05:57.747Z,2508.00
2018-04-29T05:06:57.731Z,2560.00
2018-04-29T05:07:57.713Z,2600.00
2018-04-29T05:08:57.708Z,2600.00
2018-04-29T05:09:57.695Z,2576.00
2018-04-29T05:10:57.663Z,2564.00
2018-04-29T05:11:57.645Z,2592.00
2018-04-29T05:12:57.629Z,2644.00
2018-04-29T05:13:57.610Z,2740.00
2018-04-29T05:14:57.597Z,2888.00
2018-04-29T05:15:57.577Z,2984.00
2018-04-29T05:16:57.559Z,2984.00
2018-04-29T05:17:57.543Z,2972.00
2018-04-29T05:18:57.526Z,2964.00
2018-04-29T05:19:57.508Z,2960.00
2018-04-29T05:20:57.493Z,2948.00
2018-04-29T05:21:57.475Z,3024.00
2018-04-29T05:22:57.463Z,3112.00
2018-04-29T05:23:57.445Z,3152.00
2018-04-29T05:24:57.423Z,3348.00
2018-04-29T05:25:57.408Z,3908.00
2018-04-29T05:26:57.396Z,5352.00
2018-04-29T05:27:57.374Z,8668.00
2018-04-29T05:28:57.365Z,8488.00
2018-04-29T05:29:57.339Z,13184.00
2018-04-29T05:30:57.322Z,18048.00
2018-04-29T05:31:57.406Z,22624.00
2018-04-29T05:32:57.289Z,24384.00
2018-04-29T05:33:57.282Z,25856.00
2018-04-29T05:34:57.266Z,25920.00
2018-04-29T05:35:57.244Z,27360.00
2018-04-29T05:36:57.233Z,29120.00
2018-04-29T05:37:57.208Z,30816.00
2018-04-29T05:38:57.193Z,33248.00
2018-04-29T05:39:57.187Z,33888.00
2018-04-29T05:40:57.165Z,34336.00
2018-04-29T05:41:57.162Z,34784.00
2018-04-29T05:42:57.136Z,34560.00
2018-04-29T05:43:57.122Z,33472.00
2018-04-29T05:44:57.107Z,33248.00
2018-04-29T05:45:57.094Z,33568.00
2018-04-29T05:46:57.091Z,35136.00
2018-04-29T05:47:57.175Z,35744.00
2018-04-29T05:48:57.063Z,35968.00
2018-04-29T05:49:57.077Z,36672.00
2018-04-29T05:50:57.031Z,37856.00
2018-04-29T05:51:57.034Z,40096.00
2018-04-29T05:52:57.014Z,40896.00
2018-04-29T05:53:57.007Z,39936.00
2018-04-29T05:54:56.997Z,30624.00
2018-04-29T05:55:56.976Z,16864.00
2018-04-29T05:56:56.967Z,12208.00
2018-04-29T05:57:56.955Z,10848.00
2018-04-29T05:58:56.948Z,10972.00
2018-04-29T05:59:56.939Z,11036.00
2018-04-29T06:00:56.930Z,11604.00
2018-04-29T06:01:56.917Z,29952.00
2018-04-29T06:02:56.915Z,44608.00
2018-04-29T06:03:56.897Z,44640.00
2018-04-29T06:04:56.888Z,44448.00
2018-04-29T06:05:56.877Z,45920.00
2018-04-29T06:06:56.868Z,47328.00
2018-04-29T06:07:56.867Z,47552.00
2018-04-29T06:08:56.848Z,48992.00
2018-04-29T06:09:56.839Z,48832.00
2018-04-29T06:10:56.830Z,46080.00
2018-04-29T06:11:56.822Z,46880.00
2018-04-29T06:12:56.814Z,47456.00
2018-04-29T06:13:56.806Z,46464.00
2018-04-29T06:14:56.799Z,30400.00
2018-04-29T06:15:56.790Z,31520.00
2018-04-29T06:16:56.782Z,10732.00
2018-04-29T06:17:56.775Z,16064.00
2018-04-29T06:18:56.767Z,37280.00
2018-04-29T06:19:56.762Z,34432.00
2018-04-29T06:20:56.770Z,37920.00
2018-04-29T06:21:56.755Z,14200.00
2018-04-29T06:22:56.741Z,10336.00
2018-04-29T06:23:56.732Z,11424.00
2018-04-29T06:24:56.725Z,13388.00
2018-04-29T06:25:56.726Z,13148.00
2018-04-29T06:26:56.720Z,14048.00
2018-04-29T06:27:56.704Z,13680.00
2018-04-29T06:28:56.699Z,14004.00
2018-04-29T06:29:56.688Z,17536.00
2018-04-29T06:30:56.685Z,19648.00
2018-04-29T06:31:56.756Z,20320.00
2018-04-29T06:32:56.662Z,22848.00
2018-04-29T06:33:56.656Z,20352.00
2018-04-29T06:34:56.645Z,22432.00
2018-04-29T06:35:56.639Z,19584.00
2018-04-29T06:36:56.629Z,13392.00
2018-04-29T06:37:56.629Z,14036.00
2018-04-29T06:38:56.612Z,19008.00
2018-04-29T06:39:56.681Z,30336.00
2018-04-29T06:40:56.702Z,35264.00
2018-04-29T06:41:56.594Z,30976.00
2018-04-29T06:42:56.584Z,27232.00
2018-04-29T06:43:56.586Z,20928.00
2018-04-29T06:44:56.558Z,18624.00
2018-04-29T06:45:56.549Z,17376.00
2018-04-29T06:46:56.638Z,15820.00
2018-04-29T06:47:56.531Z,16704.00
2018-04-29T06:48:56.521Z,37248.00
2018-04-29T06:49:56.510Z,15520.00
2018-04-29T06:50:56.502Z,13796.00
2018-04-29T06:51:56.493Z,12220.00
2018-04-29T06:52:56.487Z,10636.00
2018-04-29T06:53:56.472Z,9732.00
2018-04-29T06:54:56.471Z,12552.00
2018-04-29T06:55:56.454Z,11108.00
2018-04-29T06:56:56.448Z,12976.00
2018-04-29T06:57:56.437Z,17440.00
2018-04-29T06:58:56.424Z,19104.00
2018-04-29T06:59:56.415Z,14956.00
2018-04-29T07:00:56.413Z,14620.00
2018-04-29T07:01:56.397Z,14640.00
2018-04-29T07:02:56.385Z,14000.00
2018-04-29T07:03:56.372Z,14264.00
2018-04-29T07:04:56.411Z,13796.00
2018-04-29T07:05:56.358Z,14176.00
2018-04-29T07:06:56.348Z,14240.00
2018-04-29T07:07:56.329Z,13264.00
2018-04-29T07:08:56.318Z,11820.00
2018-04-29T07:09:56.308Z,10520.00
2018-04-29T07:10:56.304Z,9288.00
2018-04-29T07:11:56.290Z,8820.00
2018-04-29T07:12:56.274Z,8540.00
2018-04-29T07:13:56.263Z,8200.00
2018-04-29T07:14:56.249Z,8284.00
2018-04-29T07:15:56.243Z,8372.00
2018-04-29T07:16:56.229Z,9968.00
2018-04-29T07:17:56.215Z,10072.00
2018-04-29T07:18:56.212Z,9984.00
2018-04-29T07:19:56.266Z,10244.00
2018-04-29T07:20:56.180Z,10488.00
2018-04-29T07:21:56.168Z,11684.00
2018-04-29T07:22:56.161Z,12028.00
2018-04-29T07:23:56.161Z,14880.00
2018-04-29T07:24:56.133Z,13536.00
2018-04-29T07:25:56.121Z,34976.00
2018-04-29T07:26:56.110Z,16992.00
2018-04-29T07:27:56.101Z,18144.00
2018-04-29T07:28:56.089Z,17600.00
2018-04-29T07:29:56.079Z,19264.00
2018-04-29T07:30:56.060Z,18912.00
2018-04-29T07:31:56.051Z,17696.00
2018-04-29T07:32:56.038Z,21504.00
2018-04-29T07:33:56.025Z,14928.00
2018-04-29T07:34:56.029Z,14080.00
2018-04-29T07:35:56.004Z,13092.00
2018-04-29T07:36:55.999Z,12120.00
2018-04-29T07:37:55.978Z,11400.00
2018-04-29T07:38:55.967Z,11428.00
2018-04-29T07:39:56.024Z,11292.00
2018-04-29T07:40:55.948Z,11336.00
2018-04-29T07:41:55.936Z,11692.00
2018-04-29T07:42:55.919Z,12272.00
2018-04-29T07:43:55.907Z,13096.00
2018-04-29T07:44:55.905Z,14624.00
2018-04-29T07:45:55.883Z,15348.00
2018-04-29T07:46:55.876Z,14624.00
2018-04-29T07:47:55.858Z,12896.00
2018-04-29T07:48:55.850Z,10564.00
2018-04-29T07:49:55.837Z,8608.00
2018-04-29T07:50:55.826Z,7060.00
2018-04-29T07:51:55.810Z,6004.00
2018-04-29T07:52:55.797Z,5464.00
2018-04-29T07:53:55.785Z,5176.00
2018-04-29T07:54:55.801Z,5136.00
2018-04-29T07:55:55.767Z,5416.00
2018-04-29T07:56:55.760Z,5912.00
2018-04-29T07:57:55.742Z,6360.00
2018-04-29T07:58:55.737Z,6868.00
2018-04-29T07:59:55.711Z,7488.00
2018-04-29T08:00:55.699Z,7888.00
2018-04-29T08:01:55.697Z,8116.00
2018-04-29T08:02:55.672Z,8416.00
2018-04-29T08:03:55.661Z,8472.00
2018-04-29T08:04:55.649Z,8108.00
2018-04-29T08:05:55.640Z,8040.00
2018-04-29T08:06:55.622Z,8344.00
2018-04-29T08:07:55.616Z,8752.00
2018-04-29T08:08:55.598Z,8988.00
2018-04-29T08:09:55.584Z,9036.00
2018-04-29T08:10:55.578Z,8928.00
2018-04-29T08:11:55.572Z,8728.00
2018-04-29T08:12:55.554Z,8576.00
2018-04-29T08:13:55.543Z,8384.00
2018-04-29T08:14:55.533Z,8236.00
2018-04-29T08:15:55.510Z,7612.00
2018-04-29T08:16:55.496Z,6376.00
2018-04-29T08:17:55.496Z,5316.00
2018-04-29T08:18:55.471Z,4920.00
2018-04-29T08:19:55.467Z,5076.00
2018-04-29T08:20:55.445Z,4940.00
2018-04-29T08:21:55.454Z,4544.00
2018-04-29T08:22:55.420Z,4408.00
2018-04-29T08:23:55.411Z,4400.00
2018-04-29T08:24:55.394Z,4392.00
2018-04-29T08:25:55.383Z,4488.00
2018-04-29T08:26:55.367Z,4720.00
2018-04-29T08:27:55.355Z,4776.00
2018-04-29T08:28:55.341Z,4564.00
2018-04-29T08:29:55.330Z,4408.00
2018-04-29T08:30:55.331Z,4392.00
2018-04-29T08:31:55.306Z,4636.00
2018-04-29T08:32:55.291Z,5348.00
2018-04-29T08:33:55.278Z,6144.00
2018-04-29T08:34:55.262Z,6576.00
2018-04-29T08:35:55.251Z,6580.00
2018-04-29T08:36:55.238Z,6824.00
2018-04-29T08:37:55.238Z,7248.00
2018-04-29T08:38:55.210Z,7612.00
2018-04-29T08:39:55.205Z,7804.00
2018-04-29T08:40:55.186Z,8076.00
2018-04-29T08:41:55.210Z,8380.00
2018-04-29T08:42:55.159Z,8308.00
2018-04-29T08:43:55.147Z,7876.00
2018-04-29T08:44:55.138Z,7352.00
2018-04-29T08:45:55.127Z,6460.00
2018-04-29T08:46:55.106Z,5480.00
2018-04-29T08:47:55.092Z,4964.00
2018-04-29T08:48:55.079Z,5024.00
2018-04-29T08:49:55.072Z,5232.00
2018-04-29T08:50:55.055Z,5596.00
2018-04-29T08:51:55.049Z,6392.00
2018-04-29T08:52:55.029Z,7644.00
2018-04-29T08:53:55.016Z,9492.00
2018-04-29T08:54:55.030Z,14036.00
2018-04-29T08:55:55.005Z,24064.00
2018-04-29T08:56:54.982Z,26880.00
2018-04-29T08:57:54.971Z,31872.00
2018-04-29T08:58:54.951Z,30400.00
2018-04-29T08:59:54.953Z,24864.00
2018-04-29T09:00:54.940Z,19072.00
2018-04-29T09:01:54.912Z,14732.00
2018-04-29T09:02:54.899Z,12964.00
2018-04-29T09:03:55.013Z,12608.00
2018-04-29T09:04:54.880Z,11512.00
2018-04-29T09:05:54.863Z,10044.00
2018-04-29T09:06:54.867Z,9004.00
2018-04-29T09:07:54.845Z,9024.00
2018-04-29T09:08:54.834Z,9440.00
2018-04-29T09:09:54.823Z,10396.00
2018-04-29T09:10:54.807Z,12600.00
2018-04-29T09:11:54.796Z,13080.00
2018-04-29T09:12:54.783Z,11844.00
2018-04-29T09:13:54.772Z,10924.00
2018-04-29T09:14:54.751Z,9960.00
2018-04-29T09:15:54.748Z,9772.00
2018-04-29T09:16:54.780Z,8400.00
2018-04-29T09:17:54.724Z,6624.00
2018-04-29T09:18:54.718Z,6384.00
2018-04-29T09:19:54.703Z,7328.00
2018-04-29T09:20:54.711Z,8616.00
2018-04-29T09:21:54.669Z,9160.00
2018-04-29T09:22:54.657Z,8932.00
2018-04-29T09:23:54.635Z,8200.00
2018-04-29T09:24:54.623Z,8612.00
2018-04-29T09:25:54.612Z,9348.00
2018-04-29T09:26:54.598Z,9440.00
2018-04-29T09:27:54.587Z,9196.00
2018-04-29T09:28:54.597Z,9260.00
2018-04-29T09:29:54.560Z,9912.00
2018-04-29T09:30:54.546Z,9780.00
2018-04-29T09:31:54.546Z,8756.00
2018-04-29T09:32:54.529Z,8564.00
2018-04-29T09:33:54.522Z,9048.00
2018-04-29T09:34:54.494Z,9520.00
2018-04-29T09:35:54.493Z,9968.00
2018-04-29T09:36:54.590Z,11008.00
2018-04-29T09:37:54.475Z,11756.00
2018-04-29T09:38:54.451Z,11944.00
2018-04-29T09:39:54.439Z,11180.00
2018-04-29T09:40:54.422Z,10388.00
2018-04-29T09:41:54.405Z,10464.00
2018-04-29T09:42:54.392Z,10716.00
2018-04-29T09:43:54.378Z,9700.00
2018-04-29T09:44:54.366Z,7872.00
2018-04-29T09:45:54.359Z,6624.00
2018-04-29T09:46:54.340Z,5800.00
2018-04-29T09:47:54.326Z,4980.00
2018-04-29T09:48:54.322Z,4512.00
2018-04-29T09:49:54.299Z,4408.00
2018-04-29T09:50:54.293Z,4620.00
2018-04-29T09:51:54.275Z,4648.00
2018-04-29T09:52:54.261Z,4196.00
2018-04-29T09:53:54.255Z,3520.00
2018-04-29T09:54:54.239Z,2900.00
2018-04-29T09:55:54.238Z,2304.00
2018-04-29T09:56:54.207Z,1904.00
2018-04-29T09:57:54.207Z,2140.00
2018-04-29T09:58:54.179Z,2888.00
2018-04-29T09:59:54.164Z,3368.00
2018-04-29T10:00:54.196Z,3912.00
2018-04-29T10:01:54.137Z,4700.00
2018-04-29T10:02:54.123Z,5444.00
2018-04-29T10:03:54.119Z,6300.00
2018-04-29T10:04:54.113Z,7080.00
2018-04-29T10:05:54.085Z,7820.00
2018-04-29T10:06:54.081Z,8608.00
2018-04-29T10:07:54.061Z,9320.00
2018-04-29T10:08:54.042Z,9700.00
2018-04-29T10:09:54.030Z,9636.00
2018-04-29T10:10:54.014Z,9492.00
2018-04-29T10:11:54.010Z,9824.00
2018-04-29T10:12:53.988Z,10916.00
2018-04-29T10:13:53.973Z,12920.00
2018-04-29T10:14:53.967Z,14992.00
2018-04-29T10:15:53.949Z,15656.00
2018-04-29T10:16:53.934Z,15520.00
2018-04-29T10:17:53.926Z,15252.00
2018-04-29T10:18:54.007Z,14064.00
2018-04-29T10:19:53.901Z,12136.00
2018-04-29T10:20:53.880Z,11236.00
2018-04-29T10:21:53.890Z,11520.00
2018-04-29T10:22:53.862Z,14372.00
2018-04-29T10:23:53.844Z,16736.00
2018-04-29T10:24:53.828Z,15304.00
2018-04-29T10:25:53.814Z,14256.00
2018-04-29T10:26:53.804Z,17056.00
2018-04-29T10:27:53.791Z,18336.00
2018-04-29T10:28:53.784Z,21056.00
2018-04-29T10:29:53.773Z,19936.00
2018-04-29T10:30:53.754Z,19488.00
2018-04-29T10:31:53.741Z,19072.00
2018-04-29T10:32:53.732Z,17536.00
2018-04-29T10:33:53.715Z,17312.00
2018-04-29T10:34:53.704Z,17696.00
2018-04-29T10:35:53.701Z,19712.00
2018-04-29T10:36:53.704Z,20768.00
2018-04-29T10:37:53.668Z,20992.00
2018-04-29T10:38:53.655Z,21152.00
2018-04-29T10:39:53.647Z,23136.00
2018-04-29T10:40:53.634Z,24672.00
2018-04-29T10:41:53.620Z,50272.00
2018-04-29T10:42:53.611Z,60576.00
2018-04-29T10:43:53.602Z,43232.00
2018-04-29T10:44:53.585Z,94848.00
2018-04-29T10:45:53.574Z,70720.00
2018-04-29T10:46:53.572Z,92224.00
2018-04-29T10:47:53.560Z,62560.00
2018-04-29T10:48:53.553Z,58848.00
2018-04-29T10:49:53.549Z,80032.00
2018-04-29T10:50:53.531Z,55424.00
2018-04-29T10:51:53.569Z,52800.00
2018-04-29T10:52:53.516Z,36576.00
2018-04-29T10:53:53.502Z,28000.00
2018-04-29T10:54:53.499Z,25568.00
2018-04-29T10:55:53.494Z,22464.00
2018-04-29T10:56:53.478Z,20576.00
2018-04-29T10:57:53.473Z,21632.00
2018-04-29T10:58:53.460Z,23008.00
2018-04-29T10:59:53.456Z,24032.00
2018-04-29T11:00:53.448Z,24320.00
2018-04-29T11:01:53.449Z,24160.00
2018-04-29T11:02:53.443Z,23808.00
2018-04-29T11:03:53.425Z,26336.00
2018-04-29T11:04:53.414Z,29728.00
2018-04-29T11:05:53.409Z,32928.00
2018-04-29T11:06:53.404Z,36384.00
2018-04-29T11:07:53.396Z,36736.00
2018-04-29T11:08:53.378Z,36544.00
2018-04-29T11:09:53.370Z,33920.00
2018-04-29T11:10:53.365Z,34464.00
2018-04-29T11:11:53.363Z,40032.00
2018-04-29T11:12:53.351Z,53760.00
2018-04-29T11:13:53.343Z,84096.00
2018-04-29T11:14:53.330Z,84000.00
2018-04-29T11:15:53.344Z,77440.00
2018-04-29T11:16:53.314Z,66176.00
2018-04-29T11:17:53.307Z,68416.00
2018-04-29T11:18:53.308Z,55488.00
2018-04-29T11:19:53.292Z,37376.00
2018-04-29T11:20:53.287Z,41952.00
2018-04-29T11:21:53.281Z,56128.00
2018-04-29T11:22:53.283Z,24672.00
2018-04-29T11:23:53.281Z,29856.00
2018-04-29T11:24:53.261Z,31840.00
2018-04-29T11:25:53.255Z,27776.00
2018-04-29T11:26:53.255Z,59680.00
2018-04-29T11:27:53.245Z,40224.00
2018-04-29T11:28:53.235Z,39456.00
2018-04-29T11:29:53.234Z,43392.00
2018-04-29T11:30:53.230Z,65664.00
2018-04-29T11:31:53.222Z,63296.00
2018-04-29T11:32:53.210Z,57376.00
2018-04-29T11:33:53.280Z,56192.00
2018-04-29T11:34:53.195Z,49024.00
2018-04-29T11:35:53.188Z,57952.00
2018-04-29T11:36:53.186Z,50464.00
2018-04-29T11:37:53.174Z,52928.00
2018-04-29T11:38:53.168Z,44480.00
2018-04-29T11:39:53.162Z,29280.00
2018-04-29T11:40:53.156Z,25952.00
2018-04-29T11:41:53.149Z,22208.00
2018-04-29T11:42:53.143Z,24256.00
2018-04-29T11:43:53.143Z,35168.00
2018-04-29T11:44:53.129Z,39936.00
2018-04-29T11:45:53.135Z,41600.00
2018-04-29T11:46:53.113Z,48480.00
2018-04-29T11:47:53.119Z,37248.00
2018-04-29T11:48:53.108Z,25056.00
2018-04-29T11:49:53.099Z,22080.00
2018-04-29T11:50:53.087Z,21408.00
2018-04-29T11:51:53.082Z,21600.00
2018-04-29T11:52:53.077Z,21600.00
2018-04-29T11:53:53.071Z,21056.00
2018-04-29T11:54:53.063Z,19872.00
2018-04-29T11:55:53.051Z,19168.00
2018-04-29T11:56:53.043Z,19520.00
2018-04-29T11:57:53.042Z,21152.00
2018-04-29T11:58:53.026Z,21088.00
2018-04-29T11:59:53.019Z,21152.00
2018-04-29T12:00:53.012Z,22112.00
2018-04-29T12:01:53.018Z,22784.00
2018-04-29T12:02:52.996Z,22720.00
2018-04-29T12:03:52.987Z,23040.00
2018-04-29T12:04:52.994Z,21920.00
2018-04-29T12:05:52.969Z,21152.00
2018-04-29T12:06:52.974Z,19776.00
2018-04-29T12:07:52.952Z,18560.00
2018-04-29T12:08:52.952Z,17248.00
2018-04-29T12:09:52.999Z,15920.00
2018-04-29T12:10:52.930Z,15704.00
2018-04-29T12:11:52.919Z,15780.00
2018-04-29T12:12:52.912Z,16036.00
2018-04-29T12:13:52.910Z,16084.00
2018-04-29T12:14:52.893Z,16608.00
2018-04-29T12:15:52.893Z,18528.00
2018-04-29T12:16:52.878Z,19456.00
2018-04-29T12:17:52.866Z,19328.00